createdAt,value
2023-03-05T00:01:24.577Z,7.14
2023-03-05T00:03:53.584Z,7.27
2023-03-05T00:06:23.639Z,7.30
2023-03-05T00:08:52.022Z,7.14
2023-03-05T00:11:20.194Z,6.90
2023-03-05T00:13:48.040Z,6.78
2023-03-05T00:16:16.644Z,6.44
2023-03-05T00:18:45.109Z,6.27
2023-03-05T00:21:20.343Z,6.27
2023-03-05T00:23:50.798Z,6.32
2023-03-05T00:26:20.757Z,6.45
2023-03-05T00:28:50.352Z,6.57
2023-03-05T00:31:18.670Z,6.81
2023-03-05T00:33:46.554Z,6.99
2023-03-05T00:36:14.426Z,7.12
2023-03-05T00:38:42.161Z,7.16
2023-03-05T00:41:11.377Z,7.21
2023-03-05T00:43:39.197Z,7.20
2023-03-05T00:46:07.002Z,7.16
2023-03-05T00:48:35.543Z,7.23
2023-03-05T00:51:03.723Z,7.40
2023-03-05T00:53:31.558Z,7.45
2023-03-05T00:55:59.852Z,7.41
2023-03-05T00:58:28.895Z,7.40
2023-03-05T01:00:58.654Z,7.45
2023-03-05T01:03:26.472Z,7.51
2023-03-05T01:05:55.839Z,7.47
2023-03-05T01:08:23.660Z,7.52
2023-03-05T01:10:51.691Z,7.53
2023-03-05T01:13:21.091Z,7.58
2023-03-05T01:15:51.351Z,7.57
2023-03-05T01:18:19.646Z,7.58
2023-03-05T01:20:48.235Z,7.47
2023-03-05T01:23:16.495Z,7.51
2023-03-05T01:25:44.577Z,7.54
2023-03-05T01:28:12.453Z,7.55
2023-03-05T01:30:40.750Z,7.53
2023-03-05T01:33:10.111Z,7.52
2023-03-05T01:35:38.196Z,7.56
2023-03-05T01:38:06.214Z,7.58
2023-03-05T01:40:36.997Z,7.45
2023-03-05T01:43:18.298Z,7.44
2023-03-05T01:46:01.529Z,7.22
2023-03-05T01:48:31.551Z,6.95
2023-03-05T01:50:59.587Z,6.44
2023-03-05T01:53:29.276Z,6.67
2023-03-05T01:55:57.391Z,6.84
2023-03-05T01:58:26.716Z,7.05
2023-03-05T02:00:55.922Z,7.19
2023-03-05T02:24:08.799Z,5.39
2023-03-05T02:26:36.766Z,5.82
2023-03-05T02:29:06.823Z,5.66
2023-03-05T02:31:34.761Z,5.78
2023-03-05T02:34:02.924Z,5.88
2023-03-05T02:36:30.774Z,5.44
2023-03-05T02:38:59.231Z,5.13
2023-03-05T02:41:29.084Z,4.89
2023-03-05T02:43:58.738Z,4.90
2023-03-05T02:46:26.993Z,4.82
2023-03-05T02:48:54.844Z,4.84
2023-03-05T02:51:22.736Z,4.90
2023-03-05T02:53:51.193Z,4.94
2023-03-05T02:56:19.407Z,4.95
2023-03-05T02:58:48.721Z,5.00
2023-03-05T03:01:16.755Z,5.06
2023-03-05T03:03:44.589Z,5.14
2023-03-05T03:06:12.521Z,5.12
2023-03-05T03:08:40.266Z,5.11
2023-03-05T03:11:09.544Z,5.21
2023-03-05T03:13:37.368Z,5.09
2023-03-05T03:16:08.408Z,5.02
2023-03-05T03:18:36.567Z,5.02
2023-03-05T03:21:04.732Z,5.07
2023-03-05T03:23:33.048Z,5.06
2023-03-05T03:26:00.905Z,5.15
2023-03-05T03:28:28.813Z,5.03
2023-03-05T03:30:56.694Z,4.86
2023-03-05T03:33:26.461Z,4.85
2023-03-05T03:35:54.415Z,4.88
2023-03-05T03:38:22.212Z,4.85
2023-03-05T03:40:49.984Z,4.82
2023-03-05T03:43:17.886Z,4.82
2023-03-05T03:45:46.174Z,4.76
2023-03-05T03:48:14.065Z,4.83
2023-03-05T03:50:43.554Z,4.78
2023-03-05T03:53:14.234Z,4.76
2023-03-05T03:55:42.982Z,4.78
2023-03-05T03:58:11.524Z,4.97
2023-03-05T04:00:40.642Z,5.00
2023-03-05T04:03:09.102Z,4.83
2023-03-05T04:05:37.110Z,4.77
2023-03-05T04:08:12.069Z,4.70
2023-03-05T04:10:40.406Z,4.71
2023-03-05T04:13:08.882Z,4.64
2023-03-05T04:15:37.195Z,4.67
2023-03-05T04:18:05.832Z,4.62
2023-03-05T04:20:33.955Z,4.62
2023-03-05T04:23:01.966Z,4.61
2023-03-05T04:25:31.396Z,4.59
2023-03-05T04:27:59.313Z,4.62
2023-03-05T04:30:27.426Z,4.64
2023-03-05T04:32:55.237Z,4.60
2023-03-05T04:35:23.313Z,4.59
2023-03-05T04:37:51.359Z,4.61
2023-03-05T04:40:19.536Z,4.59
2023-03-05T04:42:48.819Z,4.58
2023-03-05T04:45:17.325Z,4.55
2023-03-05T04:47:45.253Z,4.54
2023-03-05T04:50:13.859Z,4.51
2023-03-05T04:52:42.348Z,4.54
2023-03-05T04:55:11.201Z,4.50
2023-03-05T04:57:39.268Z,4.56
2023-03-05T05:00:14.421Z,4.58
2023-03-05T05:02:42.669Z,4.54
2023-03-05T05:05:11.494Z,4.54
2023-03-05T05:07:39.473Z,4.46
2023-03-05T05:10:08.390Z,4.49
2023-03-05T05:12:36.872Z,4.50
2023-03-05T05:15:07.426Z,4.50
2023-03-05T05:17:37.265Z,4.47
2023-03-05T05:20:06.955Z,4.45
2023-03-05T05:22:35.520Z,4.42
2023-03-05T05:25:03.594Z,4.37
2023-03-05T05:27:31.940Z,4.37
2023-03-05T05:29:59.865Z,4.27
2023-03-05T05:32:28.247Z,4.27
2023-03-05T05:34:58.056Z,4.24
2023-03-05T05:37:26.539Z,4.27
2023-03-05T05:39:54.613Z,4.32
2023-03-05T05:42:24.670Z,4.43
2023-03-05T05:44:57.986Z,4.39
2023-03-05T05:47:25.953Z,4.41
2023-03-05T05:49:53.718Z,4.42
2023-03-05T05:52:23.023Z,4.54
2023-03-05T05:54:51.045Z,4.66
2023-03-05T05:57:19.223Z,4.63
2023-03-05T05:59:47.333Z,4.84
2023-03-05T06:02:15.198Z,4.66
2023-03-05T06:04:43.264Z,5.14
2023-03-05T06:07:11.302Z,5.61
2023-03-05T06:09:40.558Z,5.46
2023-03-05T06:12:08.835Z,5.41
2023-03-05T06:14:38.235Z,5.21
2023-03-05T06:17:06.397Z,5.06
2023-03-05T06:19:34.893Z,5.09
2023-03-05T06:22:02.643Z,4.68
2023-03-05T06:24:30.615Z,4.38
2023-03-05T06:27:00.432Z,4.33
2023-03-05T06:29:28.355Z,4.58
2023-03-05T06:31:56.290Z,5.22
2023-03-05T06:34:24.350Z,5.58
2023-03-05T06:36:52.226Z,5.73
2023-03-05T06:39:20.088Z,6.11
2023-03-05T06:41:47.801Z,6.31
2023-03-05T06:44:16.789Z,6.54
2023-03-05T06:46:44.970Z,6.45
2023-03-05T06:49:12.747Z,6.39
2023-03-05T06:51:41.056Z,6.12
2023-03-05T06:54:09.973Z,5.96
2023-03-05T06:56:38.455Z,5.56
2023-03-05T06:59:06.636Z,5.45
2023-03-05T07:01:35.840Z,5.57
2023-03-05T07:04:04.323Z,5.49
2023-03-05T07:06:33.304Z,5.18
2023-03-05T07:09:02.448Z,4.65
2023-03-05T07:11:30.451Z,4.53
2023-03-05T07:13:58.227Z,4.48
2023-03-05T07:16:27.112Z,4.35
2023-03-05T07:18:58.529Z,4.42
2023-03-05T07:21:27.220Z,4.50
2023-03-05T07:23:55.297Z,4.34
2023-03-05T07:26:23.455Z,4.38
2023-03-05T07:28:51.101Z,4.43
2023-03-05T07:31:20.128Z,4.55
2023-03-05T07:33:47.867Z,4.54
2023-03-05T07:36:17.268Z,4.58
2023-03-05T07:38:45.431Z,4.62
2023-03-05T07:41:14.061Z,4.46
2023-03-05T07:43:42.050Z,4.53
2023-03-05T07:46:12.933Z,4.43
2023-03-05T07:48:40.508Z,4.59
2023-03-05T07:51:08.954Z,4.67
2023-03-05T07:53:37.993Z,4.72
2023-03-05T07:56:06.342Z,4.72
2023-03-05T07:58:34.031Z,4.87
2023-03-05T08:01:01.815Z,4.80
2023-03-05T08:03:29.461Z,4.77
2023-03-05T08:05:57.083Z,4.71
2023-03-05T08:08:24.644Z,4.68
2023-03-05T08:10:53.652Z,4.79
2023-03-05T08:13:21.384Z,4.81
2023-03-05T08:15:49.059Z,4.91
2023-03-05T08:18:19.599Z,4.80
2023-03-05T08:20:47.388Z,4.69
2023-03-05T08:23:15.274Z,4.70
2023-03-05T08:25:42.893Z,4.79
2023-03-05T08:28:11.977Z,4.87
2023-03-05T08:30:40.937Z,4.73
2023-03-05T08:33:08.575Z,4.61
2023-03-05T08:35:36.332Z,4.60
2023-03-05T08:38:04.765Z,4.74
2023-03-05T08:40:32.301Z,4.61
2023-03-05T08:43:00.332Z,4.52
2023-03-05T08:45:29.870Z,4.80
2023-03-05T08:47:57.765Z,4.71
2023-03-05T08:50:25.995Z,4.54
2023-03-05T08:52:53.708Z,4.47
2023-03-05T08:55:21.359Z,4.56
2023-03-05T08:57:49.150Z,4.73
2023-03-05T09:00:17.994Z,4.49
2023-03-05T09:02:47.174Z,4.67
2023-03-05T09:05:14.807Z,4.66
2023-03-05T09:07:42.410Z,4.63
2023-03-05T09:10:12.611Z,4.76
2023-03-05T09:12:41.250Z,5.01
2023-03-05T09:15:11.473Z,5.16
2023-03-05T09:17:42.141Z,5.11
2023-03-05T09:20:13.893Z,5.08
2023-03-05T09:22:41.811Z,5.02
2023-03-05T09:25:10.966Z,5.77
2023-03-05T09:27:39.171Z,6.83
2023-03-05T09:30:07.904Z,6.50
2023-03-05T09:32:35.750Z,6.37
2023-03-05T09:35:03.795Z,5.92
2023-03-05T09:37:33.327Z,5.67
2023-03-05T09:40:01.378Z,5.79
2023-03-05T09:42:30.609Z,5.67
2023-03-05T09:45:03.789Z,5.48
2023-03-05T09:47:41.614Z,5.15
2023-03-05T09:50:15.351Z,5.00
2023-03-05T09:52:47.158Z,5.46
2023-03-05T09:55:18.584Z,5.56
2023-03-05T09:57:50.068Z,5.45
2023-03-05T10:00:26.622Z,5.33
2023-03-05T10:02:58.563Z,5.15
2023-03-05T10:05:29.671Z,5.16
2023-03-05T10:08:01.544Z,5.63
2023-03-05T10:10:38.268Z,5.52
2023-03-05T10:13:13.033Z,5.47
2023-03-05T10:15:44.428Z,5.35
2023-03-05T10:18:20.127Z,5.44
2023-03-05T10:21:05.705Z,5.75
2023-03-05T10:23:41.678Z,5.76
2023-03-05T10:26:16.077Z,6.00
2023-03-05T10:28:47.557Z,5.78
2023-03-05T10:31:28.803Z,5.70
2023-03-05T10:34:00.759Z,5.95
2023-03-05T10:36:38.948Z,5.61
2023-03-05T10:39:17.890Z,5.59
2023-03-05T10:41:54.541Z,5.72
2023-03-05T10:44:28.059Z,5.35
2023-03-05T10:46:58.182Z,5.34
2023-03-05T10:49:28.950Z,5.36
2023-03-05T10:51:59.565Z,5.67
2023-03-05T10:54:29.975Z,5.66
2023-03-05T10:57:04.834Z,6.01
2023-03-05T10:59:33.304Z,5.91
2023-03-05T11:02:08.953Z,6.25
2023-03-05T11:04:37.755Z,6.10
2023-03-05T11:07:10.263Z,6.27
2023-03-05T11:09:42.627Z,6.25
2023-03-05T11:12:16.079Z,6.08
2023-03-05T11:14:46.384Z,5.98
2023-03-05T11:17:25.480Z,6.64
2023-03-05T11:19:55.686Z,6.52
2023-03-05T11:22:25.236Z,5.92
2023-03-05T11:25:16.350Z,5.95
2023-03-05T11:27:51.478Z,5.75
2023-03-05T11:30:21.699Z,5.68
2023-03-05T11:32:50.159Z,5.75
2023-03-05T11:35:30.130Z,5.64
2023-03-05T11:38:01.739Z,5.78
2023-03-05T11:40:32.569Z,5.71
2023-03-05T11:43:03.155Z,5.94
2023-03-05T11:45:34.381Z,5.70
2023-03-05T11:48:07.536Z,5.85
2023-03-05T11:50:36.377Z,5.89
2023-03-05T11:53:07.142Z,5.75
2023-03-05T11:55:38.743Z,5.88
2023-03-05T11:58:14.065Z,6.20
2023-03-05T12:00:44.403Z,6.00
2023-03-05T12:03:31.195Z,6.05
2023-03-05T12:06:04.277Z,6.01
2023-03-05T12:08:34.221Z,5.99
2023-03-05T12:11:06.771Z,5.93
2023-03-05T12:13:36.446Z,6.50
2023-03-05T12:16:09.977Z,6.91
2023-03-05T12:18:42.787Z,7.85
2023-03-05T12:21:16.650Z,7.72
2023-03-05T12:23:49.266Z,6.54
2023-03-05T12:26:18.652Z,6.52
2023-03-05T12:29:04.502Z,7.43
2023-03-05T12:31:45.637Z,8.32
2023-03-05T12:34:29.333Z,7.96
2023-03-05T12:36:58.819Z,8.32
2023-03-05T12:39:46.128Z,9.21
2023-03-05T12:42:32.994Z,9.52
2023-03-05T12:45:25.757Z,9.08
2023-03-05T12:48:12.175Z,7.86
2023-03-05T12:50:51.474Z,8.69
2023-03-05T12:53:21.197Z,9.91
2023-03-05T12:55:52.198Z,9.64
2023-03-05T12:58:22.205Z,9.92
2023-03-05T13:00:54.449Z,10.08
2023-03-05T13:03:23.977Z,8.24
2023-03-05T13:05:52.873Z,7.35
2023-03-05T13:08:22.557Z,8.18
2023-03-05T13:10:53.819Z,8.03
2023-03-05T13:13:22.097Z,8.81
2023-03-05T13:15:51.959Z,7.92
2023-03-05T13:18:21.005Z,7.78
2023-03-05T13:20:52.285Z,7.19
2023-03-05T13:23:22.111Z,7.02
2023-03-05T13:26:00.172Z,7.28
2023-03-05T13:28:28.584Z,7.32
2023-03-05T13:30:59.171Z,7.32
2023-03-05T13:33:28.305Z,7.01
2023-03-05T13:35:56.313Z,7.25
2023-03-05T13:38:26.028Z,6.79
2023-03-05T13:41:04.455Z,6.54
2023-03-05T13:43:32.379Z,6.65
2023-03-05T13:46:01.743Z,6.44
2023-03-05T13:48:29.495Z,6.36
2023-03-05T13:50:57.851Z,6.39
2023-03-05T13:53:26.569Z,6.53
2023-03-05T13:55:57.174Z,6.10
2023-03-05T13:58:44.435Z,6.23
2023-03-05T14:01:15.904Z,6.36
2023-03-05T14:03:43.856Z,6.75
2023-03-05T14:06:12.108Z,6.90
2023-03-05T14:08:41.385Z,7.23
2023-03-05T14:11:14.450Z,7.66
2023-03-05T14:13:42.743Z,7.84
2023-03-05T14:16:12.720Z,8.27
2023-03-05T14:18:52.959Z,8.18
2023-03-05T14:21:20.708Z,7.81
2023-03-05T14:23:54.976Z,7.66
2023-03-05T14:26:37.628Z,7.85
2023-03-05T14:29:14.484Z,7.90
2023-03-05T14:31:48.191Z,7.94
2023-03-05T14:34:21.832Z,7.60
2023-03-05T14:36:50.493Z,7.19
2023-03-05T14:39:38.195Z,7.33
2023-03-05T14:42:25.304Z,8.27
2023-03-05T14:44:53.173Z,8.47
2023-03-05T14:47:21.104Z,8.25
2023-03-05T14:49:50.229Z,8.22
2023-03-05T14:52:18.329Z,7.61
2023-03-05T14:54:46.801Z,7.05
2023-03-05T14:57:16.299Z,6.88
2023-03-05T14:59:44.201Z,7.13
2023-03-05T15:02:15.464Z,7.01
2023-03-05T15:04:45.613Z,6.79
2023-03-05T15:07:18.630Z,7.03
2023-03-05T15:09:46.896Z,7.34
2023-03-05T15:12:15.981Z,7.48
2023-03-05T15:14:43.878Z,7.77
2023-03-05T15:17:17.591Z,7.89
2023-03-05T15:19:45.797Z,7.84
2023-03-05T15:22:14.076Z,7.49
2023-03-05T15:24:43.101Z,7.44
2023-03-05T15:27:11.035Z,7.36
2023-03-05T15:29:38.744Z,7.27
2023-03-05T15:32:06.663Z,7.00
2023-03-05T15:34:34.776Z,7.08
2023-03-05T15:37:02.727Z,6.57
2023-03-05T15:39:30.718Z,6.61
2023-03-05T15:41:59.805Z,6.77
2023-03-05T15:44:27.745Z,6.26
2023-03-05T15:46:56.740Z,6.40
2023-03-05T15:49:26.040Z,6.54
2023-03-05T15:51:55.129Z,6.60
2023-03-05T15:54:24.360Z,6.45
2023-03-05T15:56:52.755Z,6.32
2023-03-05T15:59:22.554Z,6.62
2023-03-05T16:01:51.589Z,6.91
2023-03-05T16:04:19.837Z,7.03
2023-03-05T16:06:48.918Z,7.00
2023-03-05T16:09:17.236Z,6.80
2023-03-05T16:11:48.136Z,6.59
2023-03-05T16:14:18.399Z,6.51
2023-03-05T16:16:49.494Z,6.67
2023-03-05T16:19:19.144Z,7.12
2023-03-05T16:21:47.016Z,7.13
2023-03-05T16:24:15.303Z,7.15
2023-03-05T16:26:43.320Z,7.20
2023-03-05T16:29:12.237Z,7.25
2023-03-05T16:31:41.506Z,7.20
2023-03-05T16:34:13.967Z,6.97
2023-03-05T16:36:47.192Z,6.97
2023-03-05T16:39:15.269Z,6.76
2023-03-05T16:41:43.390Z,6.43
2023-03-05T16:44:11.161Z,6.23
2023-03-05T16:46:41.590Z,6.47
2023-03-05T16:49:10.085Z,6.72
2023-03-05T16:51:39.009Z,6.80
2023-03-05T16:54:09.608Z,7.04
2023-03-05T16:56:37.869Z,7.23
2023-03-05T16:59:05.781Z,7.19
2023-03-05T17:01:33.470Z,7.38
2023-03-05T17:04:02.160Z,7.54
2023-03-05T17:06:31.533Z,7.65
2023-03-05T17:09:01.617Z,7.71
2023-03-05T17:11:29.687Z,7.72
2023-03-05T17:13:57.366Z,7.83
2023-03-05T17:16:25.949Z,7.83
2023-03-05T17:18:55.901Z,7.71
2023-03-05T17:21:23.829Z,7.66
2023-03-05T17:23:51.673Z,7.71
2023-03-05T17:26:21.198Z,7.67
2023-03-05T17:28:48.986Z,7.67
2023-03-05T17:31:16.990Z,7.55
2023-03-05T17:33:46.439Z,7.58
2023-03-05T17:36:15.389Z,7.57
2023-03-05T17:38:43.707Z,7.56
2023-03-05T17:41:11.572Z,7.58
2023-03-05T17:43:41.048Z,7.58
2023-03-05T17:46:12.325Z,7.54
2023-03-05T17:48:41.768Z,7.56
2023-03-05T17:51:11.530Z,7.61
2023-03-05T17:53:42.778Z,7.62
2023-03-05T17:56:11.739Z,7.50
2023-03-05T17:58:41.558Z,7.43
2023-03-05T18:01:09.966Z,7.45
2023-03-05T18:03:38.760Z,7.37
2023-03-05T18:06:07.086Z,7.38
2023-03-05T18:08:34.926Z,7.33
2023-03-05T18:11:02.916Z,7.28
2023-03-05T18:13:30.788Z,7.20
2023-03-05T18:16:02.765Z,7.25
2023-03-05T18:18:30.641Z,7.29
2023-03-05T18:20:58.960Z,7.30
2023-03-05T18:23:26.915Z,7.31
2023-03-05T18:25:54.652Z,7.35
2023-03-05T18:28:22.464Z,7.42
2023-03-05T18:30:52.220Z,7.48
2023-03-05T18:33:27.245Z,7.31
2023-03-05T18:35:57.496Z,7.14
2023-03-05T18:38:26.374Z,7.02
2023-03-05T18:40:54.681Z,7.01
2023-03-05T18:43:22.671Z,6.98
2023-03-05T18:45:50.571Z,7.09
2023-03-05T18:48:18.415Z,7.21
2023-03-05T18:50:48.042Z,7.10
2023-03-05T18:53:15.888Z,7.11
2023-03-05T18:55:45.039Z,6.96
2023-03-05T18:58:14.360Z,6.69
2023-03-05T19:00:43.713Z,5.74
2023-03-05T19:03:12.536Z,5.47
2023-03-05T19:05:40.879Z,5.93
2023-03-05T19:08:09.856Z,6.15
2023-03-05T19:10:37.748Z,6.28
2023-03-05T19:13:18.789Z,6.52
2023-03-05T19:15:46.636Z,6.52
2023-03-05T19:18:14.460Z,6.33
2023-03-05T19:20:42.178Z,6.37
2023-03-05T19:23:11.369Z,6.28
2023-03-05T19:25:41.389Z,6.23
2023-03-05T19:28:09.220Z,6.17
2023-03-05T19:30:37.724Z,6.32
2023-03-05T19:33:07.115Z,6.37
2023-03-05T19:35:34.915Z,6.53
2023-03-05T19:38:02.461Z,6.56
2023-03-05T19:40:32.016Z,6.45
2023-03-05T19:43:00.092Z,6.37
2023-03-05T19:45:27.669Z,6.41
2023-03-05T19:47:55.589Z,6.35
2023-03-05T19:50:23.329Z,6.35
2023-03-05T19:52:51.171Z,6.27
2023-03-05T19:55:19.006Z,6.24
2023-03-05T19:57:48.400Z,6.33
2023-03-05T20:00:16.569Z,6.45
2023-03-05T20:02:44.393Z,6.55
2023-03-05T20:05:12.570Z,6.43
2023-03-05T20:07:40.139Z,6.34
2023-03-05T20:10:08.327Z,6.43
2023-03-05T20:12:36.496Z,6.43
2023-03-05T20:15:06.334Z,6.51
2023-03-05T20:17:34.128Z,6.70
2023-03-05T20:20:01.818Z,6.70
2023-03-05T20:22:29.972Z,6.58
2023-03-05T20:24:59.255Z,6.47
2023-03-05T20:27:27.484Z,6.37
2023-03-05T20:29:55.161Z,6.32
2023-03-05T20:32:24.668Z,6.30
2023-03-05T20:34:52.698Z,6.10
2023-03-05T20:37:20.745Z,5.93
2023-03-05T20:39:48.613Z,5.95
2023-03-05T20:42:16.183Z,5.92
2023-03-05T20:44:44.842Z,6.01
2023-03-05T20:47:27.684Z,6.14
2023-03-05T20:49:57.383Z,6.21
2023-03-05T20:52:25.203Z,6.30
2023-03-05T20:54:53.012Z,6.16
2023-03-05T20:57:22.780Z,6.01
2023-03-05T20:59:51.262Z,6.00
2023-03-05T21:02:18.977Z,6.01
2023-03-05T21:04:46.846Z,6.03
2023-03-05T21:07:16.273Z,6.03
2023-03-05T21:09:44.041Z,6.12
2023-03-05T21:12:14.185Z,6.15
2023-03-05T21:14:41.856Z,6.16
2023-03-05T21:17:10.361Z,6.23
2023-03-05T21:19:38.967Z,6.33
2023-03-05T21:22:06.852Z,6.48
2023-03-05T21:24:51.916Z,6.33
2023-03-05T21:27:19.871Z,6.31
2023-03-05T21:29:47.409Z,6.28
2023-03-05T21:32:15.577Z,6.31
2023-03-05T21:34:46.423Z,6.17
2023-03-05T21:37:14.408Z,6.24
2023-03-05T21:39:44.788Z,6.23
2023-03-05T21:42:13.672Z,6.20
2023-03-05T21:44:41.894Z,6.25
2023-03-05T21:47:09.518Z,6.32
2023-03-05T21:49:37.329Z,6.26
2023-03-05T21:52:09.093Z,6.24
2023-03-05T21:54:37.096Z,6.30
2023-03-05T21:57:07.160Z,6.15
2023-03-05T21:59:35.232Z,6.08
2023-03-05T22:02:03.338Z,6.06
2023-03-05T22:04:31.027Z,6.05
2023-03-05T22:06:58.824Z,6.04
2023-03-05T22:09:26.669Z,5.99
2023-03-05T22:11:54.550Z,5.91
2023-03-05T22:14:23.525Z,6.06
2023-03-05T22:16:53.356Z,5.98
2023-03-05T22:19:21.107Z,6.06
2023-03-05T22:21:49.243Z,6.24
2023-03-05T22:24:17.195Z,6.20
2023-03-05T22:26:45.374Z,6.29
2023-03-05T22:29:13.124Z,6.15
2023-03-05T22:31:42.245Z,6.10
2023-03-05T22:34:10.873Z,6.24
2023-03-05T22:36:38.842Z,6.08
2023-03-05T22:39:06.454Z,5.98
2023-03-05T22:41:34.250Z,6.15
2023-03-05T22:44:02.140Z,6.40
2023-03-05T22:46:30.165Z,6.35
2023-03-05T22:49:01.787Z,6.30
2023-03-05T22:51:31.830Z,6.34
2023-03-05T22:53:59.542Z,6.35
2023-03-05T22:56:27.772Z,6.27
2023-03-05T22:58:55.675Z,6.07
2023-03-05T23:01:25.163Z,5.96
2023-03-05T23:03:58.751Z,6.03
2023-03-05T23:06:27.704Z,6.06
2023-03-05T23:08:55.499Z,5.87
2023-03-05T23:11:23.759Z,5.69
2023-03-05T23:13:51.701Z,5.65
2023-03-05T23:16:19.401Z,5.61
2023-03-05T23:18:48.450Z,5.55
2023-03-05T23:21:16.183Z,5.65
2023-03-05T23:23:45.251Z,5.64
2023-03-05T23:26:14.061Z,5.74
2023-03-05T23:28:42.777Z,5.78
2023-03-05T23:31:11.463Z,5.87
2023-03-05T23:33:39.306Z,5.95
2023-03-05T23:36:07.533Z,5.81
2023-03-05T23:38:36.808Z,5.71
2023-03-05T23:41:09.486Z,5.92
2023-03-05T23:43:37.924Z,6.04
2023-03-05T23:46:11.062Z,6.05
2023-03-05T23:48:38.994Z,6.12
2023-03-05T23:51:08.833Z,6.06
2023-03-05T23:53:38.772Z,5.87
2023-03-05T23:56:11.441Z,5.83
2023-03-05T23:58:40.207Z,5.82
